Time;durP1;ratioP1;P1;durP2;ratioP2;P2;SDS_P1;SDS_P2;PMS_P1;PMS_P2;Temp;Humidity;BMP_temperature;BMP_pressure;BME280_temperature;BME280_humidity;BME280_pressure;Samples;Min_cycle;Max_cycle;Signal;HPM_P1;HPM_P2
2023/09/27 00:01:16;;;;;;;9.88;4.03;;;;;;;16.52;62.68;99799.47;6166391;23;20179;-94
2023/09/27 00:03:42;;;;;;;6.72;3.95;;;;;;;16.63;63.20;99830.81;6167531;23;20004;-93
2023/09/27 00:06:08;;;;;;;9.55;3.75;;;;;;;16.57;63.13;99829.28;6167425;23;20016;-95
2023/09/27 00:08:33;;;;;;;7.88;3.72;;;;;;;16.39;64.26;99832.84;6140422;23;20436;-94
2023/09/27 00:10:59;;;;;;;6.00;3.70;;;;;;;16.33;63.71;99807.66;6190853;23;20360;-92
2023/09/27 00:13:35;;;;;;;12.57;4.13;;;;;;;16.26;63.79;99791.72;6167589;23;20015;-93
2023/09/27 00:16:00;;;;;;;6.68;4.18;;;;;;;16.30;64.08;99825.34;6145755;23;20005;-95
2023/09/27 00:18:27;;;;;;;8.90;4.03;;;;;;;16.31;63.47;99797.09;6142673;23;20031;-94
2023/09/27 00:20:53;;;;;;;7.35;4.13;;;;;;;16.22;63.86;99790.69;6143134;23;19996;-94
2023/09/27 00:23:19;;;;;;;8.05;4.10;;;;;;;16.17;63.23;99785.38;6142796;23;19997;-93
2023/09/27 00:25:44;;;;;;;9.35;4.10;;;;;;;16.33;63.21;99796.78;6167178;23;20325;-93
2023/09/27 00:28:10;;;;;;;7.35;4.07;;;;;;;16.29;63.66;99798.47;6141511;23;20012;-94
2023/09/27 00:30:35;;;;;;;7.43;3.95;;;;;;;16.19;63.69;99793.22;6142155;23;20000;-94
2023/09/27 00:33:01;;;;;;;7.22;3.92;;;;;;;16.19;64.20;99794.03;6167889;23;20019;-94
2023/09/27 00:35:27;;;;;;;6.22;3.55;;;;;;;16.21;64.25;99794.53;6141579;23;20036;-95
2023/09/27 00:37:52;;;;;;;6.55;4.13;;;;;;;16.17;64.69;99798.94;6141710;23;20025;-95
2023/09/27 00:40:21;;;;;;;8.48;3.92;;;;;;;16.11;64.88;99806.34;6142516;23;20001;-93
2023/09/27 00:42:49;;;;;;;6.85;4.15;;;;;;;16.02;64.69;99780.16;6143794;23;20079;-94
2023/09/27 00:45:15;;;;;;;13.07;4.72;;;;;;;16.24;64.30;99798.56;6143277;23;20008;-94
2023/09/27 00:47:44;;;;;;;10.55;4.80;;;;;;;16.23;64.26;99796.94;6142561;23;20004;-93
2023/09/27 00:50:12;;;;;;;8.68;4.10;;;;;;;16.28;64.18;99797.66;6191123;23;20025;-95
2023/09/27 00:52:39;;;;;;;6.25;4.20;;;;;;;16.36;64.04;99801.63;6141952;23;20009;-93
2023/09/27 00:55:05;;;;;;;6.97;4.35;;;;;;;16.42;63.28;99792.28;6165651;23;20001;-93
2023/09/27 00:57:30;;;;;;;11.25;4.00;;;;;;;16.31;63.16;99780.78;6141271;23;20079;-94
2023/09/27 00:59:58;;;;;;;10.00;4.03;;;;;;;16.36;63.19;99783.41;6167866;23;20099;-93
2023/09/27 01:02:24;;;;;;;9.38;4.30;;;;;;;16.43;62.64;99780.31;6141443;23;20005;-93
2023/09/27 01:04:50;;;;;;;11.32;4.70;;;;;;;16.54;63.05;99803.50;6142735;23;20005;-95
2023/09/27 01:07:16;;;;;;;12.95;4.53;;;;;;;16.46;62.59;99768.06;6143008;23;20007;-94
2023/09/27 01:09:41;;;;;;;9.80;4.75;;;;;;;16.56;62.81;99795.88;6142164;23;20048;-94
2023/09/27 01:12:07;;;;;;;11.90;4.82;;;;;;;16.44;62.68;99781.13;6140945;23;20001;-94
2023/09/27 01:14:35;;;;;;;10.13;4.55;;;;;;;16.43;62.85;99784.94;6142796;23;19996;-94
2023/09/27 01:17:10;;;;;;;10.48;4.32;;;;;;;16.62;62.26;99798.47;6142738;23;20349;-94
2023/09/27 01:19:44;;;;;;;10.00;4.53;;;;;;;16.65;62.87;99803.34;6142414;23;20047;-94
2023/09/27 01:22:12;;;;;;;8.13;4.70;;;;;;;16.65;62.16;99792.47;6142486;23;20001;-94
2023/09/27 01:24:41;;;;;;;12.18;4.45;;;;;;;16.64;62.59;99793.56;6142962;23;20000;-94
2023/09/27 01:27:09;;;;;;;10.38;4.68;;;;;;;16.73;61.70;99784.44;6167125;23;20016;-93
2023/09/27 01:29:35;;;;;;;11.45;4.05;;;;;;;16.87;61.80;99799.97;6141585;23;20001;-94
2023/09/27 01:32:03;;;;;;;13.95;4.50;;;;;;;16.81;62.23;99784.84;6166391;23;20031;-95
2023/09/27 01:34:31;;;;;;;8.70;4.40;;;;;;;16.92;62.22;99808.88;6166447;23;20008;-95
2023/09/27 01:36:57;;;;;;;12.10;4.13;;;;;;;16.80;61.71;99777.78;6141516;23;20001;-93
2023/09/27 01:39:24;;;;;;;11.73;4.50;;;;;;;16.98;61.63;99787.81;6192414;23;19993;-93
2023/09/27 01:41:54;;;;;;;12.98;4.38;;;;;;;16.89;61.93;99785.00;6141304;23;20088;-94
2023/09/27 01:44:20;;;;;;;8.30;4.20;;;;;;;17.01;61.90;99811.69;6165994;23;20032;-92
2023/09/27 01:46:45;;;;;;;11.65;4.15;;;;;;;16.93;61.63;99782.47;6142478;23;20011;-93
2023/09/27 01:49:11;;;;;;;11.18;5.07;;;;;;;16.81;62.47;99793.84;6165551;23;20008;-91
2023/09/27 01:51:36;;;;;;;16.95;5.10;;;;;;;16.81;62.28;99791.13;6166217;23;20024;-94
2023/09/27 01:54:02;;;;;;;8.80;4.20;;;;;;;16.90;61.37;99777.63;6141357;23;20008;-92
2023/09/27 01:56:28;;;;;;;8.75;4.47;;;;;;;16.75;61.81;99781.41;6165190;23;20355;-92
2023/09/27 01:58:53;;;;;;;9.63;4.25;;;;;;;16.69;62.20;99791.56;6166868;23;20004;-92
2023/09/27 02:01:19;;;;;;;6.68;4.10;;;;;;;16.75;62.13;99787.66;6165993;23;20004;-94
2023/09/27 02:03:44;;;;;;;9.68;4.15;;;;;;;16.93;61.85;99815.09;6165928;23;20136;-95
2023/09/27 02:06:10;;;;;;;9.98;5.28;;;;;;;16.56;62.57;99795.06;6165043;23;19993;-95
2023/09/27 02:08:36;;;;;;;13.65;5.47;;;;;;;16.62;62.14;99796.59;6141892;23;20017;-94
2023/09/27 02:11:02;;;;;;;11.30;4.95;;;;;;;16.66;62.54;99800.31;6192227;23;20001;-93
2023/09/27 02:13:28;;;;;;;13.68;5.50;;;;;;;16.68;62.42;99810.88;6191731;23;19997;-93
2023/09/27 02:15:55;;;;;;;10.00;5.63;;;;;;;16.63;62.10;99800.13;6140028;23;20013;-95
2023/09/27 02:18:30;;;;;;;9.77;5.40;;;;;;;16.62;62.03;99793.88;6166915;23;20344;-94
2023/09/27 02:20:55;;;;;;;14.73;5.05;;;;;;;16.66;61.72;99788.63;6190955;23;20020;-96
2023/09/27 02:23:21;;;;;;;19.25;5.07;;;;;;;16.72;61.82;99799.09;6165934;23;20004;-94
2023/09/27 02:25:59;;;;;;;10.20;4.85;;;;;;;16.86;61.36;99814.69;6141645;23;20413;-93
2023/09/27 02:28:24;;;;;;;14.35;5.22;;;;;;;16.88;61.05;99807.84;6166270;23;19997;-94
2023/09/27 02:30:50;;;;;;;11.52;5.32;;;;;;;16.84;61.37;99804.09;6166490;23;19997;-94
2023/09/27 02:33:16;;;;;;;8.88;5.03;;;;;;;16.76;61.56;99800.13;6142525;23;20100;-94
2023/09/27 02:35:41;;;;;;;11.93;5.32;;;;;;;16.81;61.80;99812.06;6165427;23;20012;-94
2023/09/27 02:38:07;;;;;;;12.23;4.90;;;;;;;16.68;61.58;99803.53;6166851;23;20471;-93
2023/09/27 02:40:33;;;;;;;11.10;5.05;;;;;;;16.62;61.48;99793.06;6165777;23;20001;-94
2023/09/27 02:43:05;;;;;;;7.78;4.88;;;;;;;16.58;61.36;99787.41;6165329;23;20506;-92
2023/09/27 02:45:31;;;;;;;10.85;5.20;;;;;;;16.68;61.70;99798.09;6166493;23;20008;-94
2023/09/27 02:47:56;;;;;;;9.75;5.30;;;;;;;16.67;62.03;99801.94;6164496;23;19997;-94
2023/09/27 02:50:23;;;;;;;14.57;4.78;;;;;;;16.72;61.57;99798.31;6166712;23;20008;-93
2023/09/27 02:52:49;;;;;;;8.25;4.85;;;;;;;16.73;61.57;99800.75;6144774;23;20011;-93
2023/09/27 02:55:19;;;;;;;9.65;5.05;;;;;;;16.74;61.57;99806.97;6192961;23;20394;-93
2023/09/27 02:57:50;;;;;;;8.63;4.68;;;;;;;16.68;61.98;99803.53;6169123;23;20146;-94
2023/09/27 03:00:17;;;;;;;9.05;4.78;;;;;;;16.67;62.18;99807.38;6169351;23;20408;-93
2023/09/27 03:02:43;;;;;;;13.75;5.15;;;;;;;16.78;61.50;99805.28;6168116;23;19997;-95
2023/09/27 03:05:11;;;;;;;8.98;4.65;;;;;;;16.72;62.10;99793.66;6144752;23;20020;-95
2023/09/27 03:07:38;;;;;;;13.73;5.22;;;;;;;16.66;62.29;99789.44;6170002;23;20045;-94
2023/09/27 03:10:12;;;;;;;9.48;5.18;;;;;;;16.74;62.10;99801.53;6144198;23;20004;-95
2023/09/27 03:12:39;;;;;;;10.82;5.35;;;;;;;16.70;62.36;99795.88;6146773;23;20001;-93
2023/09/27 03:15:10;;;;;;;9.60;4.75;;;;;;;16.81;62.10;99806.63;6169165;23;20008;-95
2023/09/27 03:17:35;;;;;;;9.55;5.13;;;;;;;16.71;62.79;99802.16;6145561;23;20052;-93
2023/09/27 03:20:01;;;;;;;8.25;4.75;;;;;;;16.80;62.36;99821.31;6168165;23;20007;-93
2023/09/27 03:22:27;;;;;;;12.60;4.82;;;;;;;16.69;61.93;99797.00;6191074;23;19997;-94
2023/09/27 03:24:52;;;;;;;27.83;6.85;;;;;;;16.67;61.86;99795.69;6167763;23;20314;-88
2023/09/27 03:27:18;;;;;;;10.75;5.07;;;;;;;16.84;61.65;99811.47;6143110;23;20001;-94
2023/09/27 03:29:44;;;;;;;9.93;4.95;;;;;;;16.80;62.02;99804.97;6142983;23;20080;-93
2023/09/27 03:32:11;;;;;;;10.48;5.43;;;;;;;16.75;62.45;99817.56;6142937;23;20113;-93
2023/09/27 03:34:37;;;;;;;17.40;5.95;;;;;;;16.53;63.32;99806.53;6192216;23;19997;-92
2023/09/27 03:37:05;;;;;;;9.57;4.78;;;;;;;16.44;63.35;99811.84;6142284;23;20356;-93
2023/09/27 03:39:35;;;;;;;9.27;5.95;;;;;;;16.21;63.75;99808.13;6142638;23;20462;-94
2023/09/27 03:42:02;;;;;;;10.27;4.95;;;;;;;16.16;63.73;99794.59;6144435;23;20001;-93
2023/09/27 03:44:28;;;;;;;10.35;5.00;;;;;;;16.33;63.63;99824.78;6167985;23;20001;-93
2023/09/27 03:46:53;;;;;;;13.88;4.75;;;;;;;16.33;63.75;99813.91;6166541;23;20492;-94
2023/09/27 03:49:19;;;;;;;10.68;4.88;;;;;;;16.20;63.86;99820.06;6142678;23;20001;-93
2023/09/27 03:51:44;;;;;;;14.93;6.80;;;;;;;16.13;64.97;99815.03;6142783;23;19997;-93
2023/09/27 03:54:16;;;;;;;12.30;4.95;;;;;;;16.07;65.35;99808.06;6165639;23;20024;-94
2023/09/27 03:56:42;;;;;;;13.20;6.35;;;;;;;15.92;65.70;99800.94;6165799;23;20071;-92
2023/09/27 03:59:07;;;;;;;12.50;5.18;;;;;;;16.03;65.62;99825.22;6141936;23;20491;-94
2023/09/27 04:01:33;;;;;;;8.30;5.15;;;;;;;15.85;66.22;99808.63;6166325;23;20067;-93
2023/09/27 04:03:58;;;;;;;14.63;5.18;;;;;;;15.76;66.73;99811.19;6142738;23;20432;-94
2023/09/27 04:06:24;;;;;;;10.15;5.10;;;;;;;15.88;66.27;99824.34;6166516;23;19997;-94
2023/09/27 04:08:51;;;;;;;10.98;5.55;;;;;;;15.68;67.00;99808.28;6142350;23;20031;-94
2023/09/27 04:11:16;;;;;;;11.48;5.15;;;;;;;15.74;66.92;99818.00;6143012;23;20040;-94
2023/09/27 04:13:43;;;;;;;10.18;5.80;;;;;;;15.72;67.67;99834.59;6141003;23;20005;-93
2023/09/27 04:16:21;;;;;;;11.18;5.65;;;;;;;15.63;67.71;99817.31;6142257;23;20124;-94
2023/09/27 04:18:48;;;;;;;9.88;5.25;;;;;;;15.62;68.36;99831.16;6143495;23;20005;-95
2023/09/27 04:21:16;;;;;;;15.75;6.22;;;;;;;15.34;69.01;99810.06;6140839;23;19997;-92
2023/09/27 04:23:55;;;;;;;14.23;6.05;;;;;;;15.21;69.11;99807.22;6165437;23;20004;-90
2023/09/27 04:26:21;;;;;;;18.42;5.82;;;;;;;15.32;68.92;99822.31;6140785;23;20024;-91
2023/09/27 04:28:47;;;;;;;12.95;5.72;;;;;;;15.45;68.92;99840.59;6165261;23;19997;-92
2023/09/27 04:31:12;;;;;;;14.25;6.80;;;;;;;15.46;68.89;99825.94;6165438;23;20348;-91
2023/09/27 04:33:44;;;;;;;16.73;7.25;;;;;;;15.49;69.18;99844.34;6172213;23;20057;-91
2023/09/27 04:36:15;;;;;;;15.82;5.88;;;;;;;15.33;69.14;99824.72;6170669;23;20455;-93
2023/09/27 04:38:44;;;;;;;17.58;6.97;;;;;;;15.29;69.02;99812.00;6145962;23;19997;-91
2023/09/27 04:41:14;;;;;;;14.30;7.25;;;;;;;15.31;69.46;99820.69;6170118;23;20000;-94
2023/09/27 04:43:50;;;;;;;13.30;6.20;;;;;;;15.41;69.90;99855.84;6142006;23;20023;-93
2023/09/27 04:46:19;;;;;;;15.10;5.90;;;;;;;15.19;70.14;99826.53;6168808;23;20040;-93
2023/09/27 04:48:46;;;;;;;13.27;6.60;;;;;;;15.38;69.86;99833.88;6146392;23;20005;-92
2023/09/27 04:51:12;;;;;;;21.15;7.28;;;;;;;15.51;69.67;99854.91;6145266;23;20446;-90
2023/09/27 04:53:37;;;;;;;22.85;7.40;;;;;;;15.47;68.67;99832.16;6143730;23;19997;-94
2023/09/27 04:56:07;;;;;;;18.52;6.80;;;;;;;15.38;69.93;99823.88;6144739;23;20001;-95
2023/09/27 04:58:33;;;;;;;16.98;6.63;;;;;;;15.58;68.81;99852.66;6142805;23;20051;-94
2023/09/27 05:01:01;;;;;;;16.17;5.93;;;;;;;15.63;69.06;99865.38;6142589;23;20012;-92
2023/09/27 05:03:37;;;;;;;17.92;6.30;;;;;;;15.67;68.06;99839.25;6143126;23;20344;-92
2023/09/27 05:06:13;;;;;;;11.65;6.28;;;;;;;15.79;68.00;99850.50;6167012;23;20046;-93
2023/09/27 05:08:39;;;;;;;22.17;6.82;;;;;;;15.95;67.47;99862.00;6142564;23;20017;-93
2023/09/27 05:11:04;;;;;;;294.25;24.70;;;;;;;15.95;67.26;99857.38;6143680;23;20005;-94
2023/09/27 05:13:30;;;;;;;24.92;7.00;;;;;;;16.07;67.14;99861.56;6144615;23;19999;-95
2023/09/27 05:15:56;;;;;;;20.45;7.00;;;;;;;16.10;66.44;99847.41;6143465;23;20056;-93
2023/09/27 05:18:36;;;;;;;21.27;8.60;;;;;;;16.12;66.73;99872.34;6143171;23;20005;-94
2023/09/27 05:21:56;;;;;;;8.43;5.45;;;;;;;16.02;67.13;99862.47;6131099;23;20028;-94
2023/09/27 05:24:50;;;;;;;;;;;;;;;;;;;;;
2023/09/27 05:34:39;;;;;;;19.95;6.07;;;;;;;16.70;64.74;99879.38;5954964;24;20011;-96
2023/09/27 05:36:59;;;;;;;14.50;5.80;;;;;;;16.85;64.51;99890.06;5936662;24;20481;-93
2023/09/27 05:40:13;;;;;;;14.32;5.80;;;;;;;16.82;64.35;99849.03;5936449;24;20005;-96
2023/09/27 05:43:18;;;;;;;19.13;5.72;;;;;;;17.24;63.75;99888.00;5964242;24;20068;-93
2023/09/27 05:45:52;;;;;;;17.05;5.57;;;;;;;17.30;63.05;99884.88;5938693;24;20068;-94
2023/09/27 05:49:07;;;;;;;;;;;;;;;;;;;;;
2023/09/27 05:51:35;;;;;;;14.68;5.93;;;;;;;17.30;62.47;99876.72;5960947;24;20025;-92
2023/09/27 06:00:37;;;;;;;12.05;8.40;;;;;;;17.69;61.90;99894.50;5916800;23;20462;-94
2023/09/27 06:10:33;;;;;;;12.65;4.95;;;;;;;17.83;60.92;99901.91;5956226;24;20025;-94
2023/09/27 06:13:10;;;;;;;11.23;5.25;;;;;;;17.91;60.65;99893.81;5935052;23;20479;-91
2023/09/27 06:15:36;;;;;;;11.70;5.45;;;;;;;17.97;60.28;99878.97;6059336;23;20458;-91
2023/09/27 06:21:30;;;;;;;25.85;5.18;;;;;;;18.43;59.29;99906.31;6109597;23;20017;-92
2023/09/27 06:24:41;;;;;;;22.23;7.40;;;;;;;18.02;59.81;99885.44;6112556;23;19997;-92
2023/09/27 06:27:16;;;;;;;13.68;5.60;;;;;;;18.39;58.98;99911.59;6028420;23;20038;-91
2023/09/27 06:29:44;;;;;;;10.73;4.97;;;;;;;18.28;59.15;99905.56;6074579;23;20009;-93
2023/09/27 06:32:10;;;;;;;22.70;5.45;;;;;;;18.18;59.08;99894.91;6136452;23;20093;-91
2023/09/27 06:37:49;;;;;;;20.10;6.97;;;;;;;18.45;58.58;99898.63;6048088;23;20018;-91
2023/09/27 06:40:26;;;;;;;16.40;6.35;;;;;;;18.57;58.40;99926.16;6024369;23;20007;-95
2023/09/27 06:42:58;;;;;;;16.17;6.80;;;;;;;18.35;58.63;99903.22;6032450;23;20067;-94
2023/09/27 06:45:23;;;;;;;12.05;5.28;;;;;;;18.48;57.92;99912.47;6035815;23;20352;-94
2023/09/27 06:47:49;;;;;;;12.13;5.13;;;;;;;18.60;57.90;99919.31;6106598;23;20006;-94
2023/09/27 06:50:20;;;;;;;18.65;8.85;;;;;;;18.63;57.64;99897.66;6034063;23;20390;-95
2023/09/27 06:52:49;;;;;;;32.40;10.90;;;;;;;18.78;57.64;99904.69;6033738;23;20007;-94
2023/09/27 06:55:16;;;;;;;23.10;10.90;;;;;;;19.00;57.24;99914.81;6035084;23;20002;-92
2023/09/27 06:57:42;;;;;;;20.23;8.57;;;;;;;19.18;56.84;99927.44;6103140;23;20002;-91
2023/09/27 07:00:13;;;;;;;15.70;6.00;;;;;;;19.23;56.42;99928.44;6055319;23;20453;-93
2023/09/27 07:02:42;;;;;;;15.82;5.72;;;;;;;19.38;55.79;99923.38;6032879;23;20002;-95
2023/09/27 07:05:08;;;;;;;16.10;6.60;;;;;;;19.52;55.62;99922.47;6056254;23;20441;-95
2023/09/27 07:07:36;;;;;;;23.77;5.90;;;;;;;19.56;55.60;99912.53;6055859;23;20449;-96
2023/09/27 07:10:03;;;;;;;13.18;5.00;;;;;;;19.81;54.96;99929.38;6039539;23;20049;-93
2023/09/27 07:12:30;;;;;;;36.50;19.42;;;;;;;19.85;54.23;99917.47;6061470;23;20088;-94
2023/09/27 07:14:59;;;;;;;20.17;4.88;;;;;;;19.99;53.81;99937.31;6082546;23;20015;-92
2023/09/27 07:17:31;;;;;;;11.18;5.13;;;;;;;19.98;54.17;99927.50;6138717;23;20420;-92
2023/09/27 07:19:57;;;;;;;12.90;8.23;;;;;;;19.95;54.14;99909.00;6093911;23;20005;-94
2023/09/27 07:22:23;;;;;;;18.83;10.10;;;;;;;19.96;54.06;99907.06;6092193;23;20008;-92
2023/09/27 07:24:51;;;;;;;17.35;7.95;;;;;;;20.32;53.51;99930.63;6091910;23;20005;-93
2023/09/27 07:28:06;;;;;;;12.65;6.22;;;;;;;20.64;52.89;99942.25;6120649;23;19985;-94
2023/09/27 07:30:58;;;;;;;14.73;5.22;;;;;;;20.60;52.26;99911.97;6142181;23;20032;-93
2023/09/27 07:33:44;;;;;;;;;;;;;;;20.91;52.28;99944.63;6096162;23;20388;-92
2023/09/27 07:36:10;;;;;;;11.68;5.78;;;;;;;20.65;52.51;99911.84;6118799;23;20244;-92
2023/09/27 07:38:42;;;;;;;13.93;4.88;;;;;;;20.75;52.10;99921.63;6091886;23;20005;-94
2023/09/27 07:44:55;;;;;;;14.77;5.20;;;;;;;21.01;51.47;99913.41;6095320;23;20455;-93
2023/09/27 07:47:24;;;;;;;10.60;6.03;;;;;;;21.07;51.12;99912.09;6140729;23;20048;-91
2023/09/27 07:50:13;;;;;;;16.50;7.15;;;;;;;20.95;50.98;99890.06;6122614;23;20029;-96
2023/09/27 07:52:38;;;;;;;19.15;7.05;;;;;;;21.25;50.86;99926.56;6128698;23;20004;-95
2023/09/27 07:55:09;;;;;;;15.05;6.63;;;;;;;21.35;50.86;99923.47;6099052;23;19998;-94
2023/09/27 07:57:36;;;;;;;16.33;6.45;;;;;;;21.37;50.61;99904.78;6124131;23;20016;-94
2023/09/27 08:00:08;;;;;;;14.52;6.82;;;;;;;21.63;50.32;99908.56;6125983;23;19985;-96
2023/09/27 08:02:39;;;;;;;11.10;4.85;;;;;;;21.64;50.40;99896.47;6124547;23;20094;-95
2023/09/27 08:05:12;;;;;;;22.73;8.10;;;;;;;21.75;49.77;99894.97;6151975;23;20005;-95
2023/09/27 08:07:40;;;;;;;14.52;7.20;;;;;;;21.77;50.27;99904.47;6151202;23;20307;-91
2023/09/27 08:10:12;;;;;;;21.08;6.68;;;;;;;21.92;49.78;99916.00;6125688;23;20020;-95
2023/09/27 08:12:46;;;;;;;10.13;3.28;;;;;;;22.15;49.28;99921.97;6178963;23;20001;-95
2023/09/27 08:15:25;;;;;;;10.93;3.40;;;;;;;22.32;48.97;99921.88;6154210;23;19997;-94
2023/09/27 08:18:13;;;;;;;11.27;3.63;;;;;;;21.89;50.23;99909.22;6183782;23;20001;-96
2023/09/27 08:28:09;;;;;;;5.75;3.08;;;;;;;21.90;49.53;99902.59;6069990;23;20021;-95
2023/09/27 08:30:38;;;;;;;13.93;3.75;;;;;;;21.96;49.70;99901.28;5981463;23;19998;-95
2023/09/27 08:33:07;;;;;;;13.35;3.95;;;;;;;22.18;49.83;99910.34;6012324;23;20009;-94
2023/09/27 08:35:55;;;;;;;6.88;3.72;;;;;;;22.20;49.30;99905.31;6144233;23;20020;-96
2023/09/27 08:38:26;;;;;;;14.00;7.43;;;;;;;22.18;49.88;99904.84;6119653;23;20030;-94
2023/09/27 08:40:58;;;;;;;9.93;3.90;;;;;;;22.34;49.08;99899.59;6096421;23;20029;-96
2023/09/27 08:43:34;;;;;;;4.72;2.83;;;;;;;22.32;49.31;99904.63;6097657;23;20140;-94
2023/09/27 08:46:01;;;;;;;5.70;3.63;;;;;;;22.46;49.08;99921.63;6095912;23;20375;-93
2023/09/27 08:48:37;;;;;;;9.80;3.92;;;;;;;22.43;48.88;99908.56;6120620;23;20017;-95
2023/09/27 08:56:29;;;;;;;7.18;3.00;;;;;;;22.72;49.12;99893.97;6183833;22;20048;-95
2023/09/27 08:59:34;;;;;;;;;;;;;;;;;;;;;
2023/09/27 09:37:28;;;;;;;7.43;4.20;;;;;;;22.84;50.20;99871.22;6172652;23;20033;-95
2023/09/27 09:40:35;;;;;;;7.75;3.70;;;;;;;22.92;49.55;99884.06;6146024;23;20012;-95
2023/09/27 09:43:10;;;;;;;6.90;4.25;;;;;;;23.05;49.67;99879.44;6172307;23;20476;-95
2023/09/27 09:57:10;;;;;;;14.15;4.25;;;;;;;23.50;48.81;99878.59;6188717;22;20344;-95
2023/09/27 10:00:27;;;;;;;10.85;3.90;;;;;;;23.41;47.83;99855.91;6158822;23;20017;-95
2023/09/27 10:03:19;;;;;;;7.97;3.80;;;;;;;23.38;48.60;99848.34;6030742;23;20007;-95
2023/09/27 10:05:51;;;;;;;17.90;3.65;;;;;;;23.57;47.63;99878.84;6156355;23;19989;-94
2023/09/27 10:08:32;;;;;;;7.88;3.88;;;;;;;23.60;46.51;99845.16;6152346;23;20023;-95
2023/09/27 10:11:08;;;;;;;7.60;3.77;;;;;;;23.61;46.78;99845.94;6153847;23;20000;-95
2023/09/27 10:14:00;;;;;;;7.63;3.47;;;;;;;23.37;46.72;99844.81;6151128;23;20332;-92
2023/09/27 10:16:28;;;;;;;;;;;;;;;23.64;46.38;99861.75;6173619;23;20005;-95
2023/09/27 10:22:04;;;;;;;9.80;3.50;;;;;;;23.96;46.01;99857.28;6092506;23;20013;-95
2023/09/27 10:25:00;;;;;;;10.50;3.45;;;;;;;24.08;45.10;99850.94;6044955;23;20006;-95
2023/09/27 10:31:00;;;;;;;10.60;3.45;;;;;;;24.12;44.86;99840.84;6167925;23;20009;-93
2023/09/27 10:36:12;;;;;;;6.53;3.60;;;;;;;24.14;44.18;99815.75;6171032;23;20009;-95
2023/09/27 10:38:50;;;;;;;5.55;3.45;;;;;;;24.35;43.89;99826.56;6144952;23;20001;-95
2023/09/27 10:41:38;;;;;;;9.85;3.72;;;;;;;24.50;43.59;99823.06;6147822;23;20005;-92
2023/09/27 10:44:33;;;;;;;5.85;3.60;;;;;;;24.48;43.73;99788.75;6146495;23;20005;-95
2023/09/27 10:50:38;;;;;;;7.50;3.80;;;;;;;24.87;43.17;99778.03;6025103;23;20007;-93
2023/09/27 10:53:20;;;;;;;;;;;;;;;;;;;;;
2023/09/27 10:55:53;;;;;;;6.15;3.80;;;;;;;24.98;42.01;99785.38;6133965;23;20025;-96
2023/09/27 10:58:19;;;;;;;15.30;4.20;;;;;;;25.10;41.89;99778.19;6152481;23;20025;-95
2023/09/27 11:01:00;;;;;;;8.82;3.60;;;;;;;25.48;41.50;99796.84;6127146;23;20012;-93
2023/09/27 11:03:29;;;;;;;10.38;4.00;;;;;;;25.60;40.84;99777.41;6176124;23;20020;-95
2023/09/27 11:06:15;;;;;;;8.23;4.15;;;;;;;25.68;39.79;99769.31;6127465;23;20004;-92
2023/09/27 11:08:51;;;;;;;7.72;3.42;;;;;;;25.55;39.29;99758.41;6151804;23;20005;-96
2023/09/27 11:11:33;;;;;;;8.52;3.38;;;;;;;25.70;39.90;99770.53;6131014;23;20005;-94
2023/09/27 11:13:59;;;;;;;15.30;3.47;;;;;;;25.44;39.47;99757.34;6126661;23;20008;-92
2023/09/27 11:16:29;;;;;;;7.85;3.00;;;;;;;25.40;40.07;99749.03;6150798;23;20005;-93
2023/09/27 11:18:56;;;;;;;6.07;3.10;;;;;;;25.67;39.69;99746.47;6128486;23;20005;-94
2023/09/27 11:21:24;;;;;;;16.17;4.38;;;;;;;25.76;39.68;99749.78;6127301;23;20004;-94
2023/09/27 11:24:01;;;;;;;11.48;7.45;;;;;;;25.81;39.57;99741.22;6150870;23;20001;-96
2023/09/27 11:26:32;;;;;;;9.68;3.45;;;;;;;25.87;38.95;99743.72;6129069;23;19992;-94
2023/09/27 11:29:05;;;;;;;5.90;2.97;;;;;;;25.86;38.65;99731.06;6126529;23;20007;-94
2023/09/27 11:31:34;;;;;;;9.90;3.30;;;;;;;26.03;38.19;99727.13;6117743;23;20497;-91
2023/09/27 11:34:17;;;;;;;4.13;3.00;;;;;;;26.10;37.60;99738.28;6121344;23;20020;-94
2023/09/27 11:36:57;;;;;;;;;;;;;;;;;;;;;
2023/09/27 11:39:48;;;;;;;9.27;3.78;;;;;;;25.80;38.52;99719.53;6130701;23;20044;-91
2023/09/27 11:42:17;;;;;;;6.28;2.78;;;;;;;25.91;37.73;99708.75;6120881;23;19997;-94
2023/09/27 11:44:52;;;;;;;8.85;3.78;;;;;;;26.09;37.90;99715.41;6127396;23;19997;-92
2023/09/27 11:47:36;;;;;;;7.10;2.92;;;;;;;26.13;37.53;99726.53;6176509;23;19992;-90
2023/09/27 11:50:14;;;;;;;7.20;3.10;;;;;;;26.13;36.91;99719.03;6127755;23;20029;-94
2023/09/27 11:56:05;;;;;;;6.03;2.90;;;;;;;26.15;35.89;99694.63;6124200;23;20303;-93
2023/09/27 11:58:50;;;;;;;7.10;2.70;;;;;;;26.23;35.85;99678.19;6141729;23;20079;-96
2023/09/27 12:01:19;;;;;;;11.20;4.07;;;;;;;26.46;36.04;99697.53;6145169;23;19997;-96
2023/09/27 12:06:56;;;;;;;6.72;2.63;;;;;;;26.82;35.96;99698.97;6142638;23;20060;-91
2023/09/27 12:09:21;;;;;;;7.15;2.60;;;;;;;26.79;35.05;99695.00;6139925;23;20002;-91
2023/09/27 12:12:03;;;;;;;;;;;;;;;;;;;;;
2023/09/27 12:14:49;;;;;;;6.82;3.00;;;;;;;26.84;35.15;99688.34;6140084;23;20033;-92
2023/09/27 12:17:15;;;;;;;6.55;2.72;;;;;;;26.79;34.87;99678.41;6138743;23;20009;-93
2023/09/27 12:20:27;;;;;;;9.10;3.10;;;;;;;26.91;35.54;99685.69;6113034;23;20352;-92
2023/09/27 12:23:14;;;;;;;8.50;2.58;;;;;;;26.78;34.51;99679.56;6143084;23;20005;-91
2023/09/27 12:25:58;;;;;;;9.60;2.83;;;;;;;26.76;34.58;99676.38;6138776;23;20344;-92
2023/09/27 12:28:37;;;;;;;;;;;;;;;;;;;;;
2023/09/27 12:31:24;;;;;;;8.27;2.95;;;;;;;26.90;35.22;99672.25;6162501;23;20025;-92
2023/09/27 12:33:55;;;;;;;10.23;3.20;;;;;;;26.88;35.06;99660.78;6166889;23;20021;-93
2023/09/27 12:36:45;;;;;;;12.55;3.40;;;;;;;26.95;35.33;99672.72;6117095;23;20033;-93
2023/09/27 12:42:14;;;;;;;7.28;2.65;;;;;;;26.81;34.03;99666.97;6165893;23;20009;-90
2023/09/27 12:45:06;;;;;;;7.80;3.10;;;;;;;26.71;33.86;99662.88;6122152;23;20013;-93
2023/09/27 12:48:30;;;;;;;;;;;;;;;;;;;;;
2023/09/27 12:55:19;;;;;;;6.10;2.90;;;;;;;27.09;34.33;99665.81;5859176;24;20379;-95
2023/09/27 12:58:05;;;;;;;7.22;5.20;;;;;;;27.27;33.58;99650.31;5834011;24;20034;-96
2023/09/27 13:13:45;;;;;;;3.90;2.22;;;;;;;27.64;31.82;99598.97;6197628;23;20064;-95
2023/09/27 13:19:11;;;;;;;4.78;2.92;;;;;;;27.61;31.78;99604.09;5900259;24;20001;-92
2023/09/27 13:21:36;;;;;;;8.77;4.38;;;;;;;27.59;31.83;99606.44;6141069;23;20447;-94
2023/09/27 13:25:06;;;;;;;;;;;;;;;;;;;;;
2023/09/27 13:27:46;;;;;;;10.85;3.17;;;;;;;27.54;32.38;99617.06;6174454;23;20028;-92
2023/09/27 13:30:39;;;;;;;9.50;2.72;;;;;;;27.40;31.99;99617.69;6119969;23;19997;-92
2023/09/27 13:33:25;;;;;;;6.95;2.95;;;;;;;27.49;31.80;99633.97;6148357;23;20001;-93
2023/09/27 13:35:56;;;;;;;7.68;2.55;;;;;;;27.38;31.66;99612.53;6151814;23;20013;-91
2023/09/27 13:38:46;;;;;;;7.95;3.85;;;;;;;27.27;31.47;99596.97;6123639;23;20081;-94
2023/09/27 13:41:41;;;;;;;6.65;3.35;;;;;;;27.26;30.77;99611.97;6149086;23;20332;-93
2023/09/27 13:44:07;;;;;;;5.95;3.30;;;;;;;27.15;31.12;99593.25;6144264;23;20029;-92
2023/09/27 13:46:33;;;;;;;8.57;3.80;;;;;;;27.26;31.03;99614.72;6142965;23;20016;-93
2023/09/27 13:49:01;;;;;;;7.38;3.92;;;;;;;27.21;30.54;99596.47;6117219;23;20008;-93
2023/09/27 13:51:37;;;;;;;;;;;;;;;;;;;;;
2023/09/27 13:54:19;;;;;;;5.65;3.55;;;;;;;27.07;30.33;99583.25;6148430;23;20016;-95
2023/09/27 13:56:45;;;;;;;7.22;2.90;;;;;;;27.11;29.88;99586.88;6119202;23;20012;-96
2023/09/27 13:59:11;;;;;;;7.40;2.88;;;;;;;27.08;29.99;99584.03;6120939;23;20324;-92
2023/09/27 14:01:37;;;;;;;6.72;2.83;;;;;;;27.17;30.07;99598.41;6114847;23;20074;-92
2023/09/27 14:04:12;;;;;;;7.80;2.70;;;;;;;27.13;29.85;99578.22;6117367;23;20005;-92
2023/09/27 14:09:22;;;;;;;10.40;3.33;;;;;;;27.32;28.82;99596.63;6152247;23;20075;-92
2023/09/27 14:12:07;;;;;;;10.15;2.90;;;;;;;27.36;28.64;99576.16;6121302;23;20017;-94
2023/09/27 14:14:38;;;;;;;7.43;2.42;;;;;;;27.19;28.45;99585.00;6177421;23;19981;-95
2023/09/27 14:17:04;;;;;;;10.07;2.80;;;;;;;27.25;28.68;99588.25;6143621;23;20013;-93
2023/09/27 14:22:23;;;;;;;6.72;2.47;;;;;;;27.36;28.45;99597.47;6151456;23;20348;-94
2023/09/27 14:24:49;;;;;;;8.52;2.65;;;;;;;27.21;28.38;99575.16;6145593;23;20001;-94
2023/09/27 14:27:17;;;;;;;6.15;2.50;;;;;;;27.20;28.93;99575.53;6121734;23;20055;-94